Time;durP1;ratioP1;P1;durP2;ratioP2;P2;SDS_P1;SDS_P2;PMS_P1;PMS_P2;Temp;Humidity;BMP_temperature;BMP_pressure;BME280_temperature;BME280_humidity;BME280_pressure;Samples;Min_cycle;Max_cycle;Signal;HPM_P1;HPM_P2
2021/03/01 00:03:23;;;;;;;9.90;7.00;;;;;;;;;;10316588;28;20435;-64
2021/03/01 00:08:20;;;;;;;10.13;8.25;;;;;;;;;;10316859;28;20078;-64
2021/03/01 00:13:19;;;;;;;9.10;7.43;;;;;;;;;;10316520;28;20045;-65
2021/03/01 00:18:16;;;;;;;9.07;7.60;;;;;;;;;;10316353;28;20045;-64
2021/03/01 00:23:14;;;;;;;8.80;7.32;;;;;;;;;;10316478;28;20097;-65
2021/03/01 00:28:11;;;;;;;11.27;7.88;;;;;;;;;;10316129;28;20478;-64
2021/03/01 00:33:09;;;;;;;9.57;8.00;;;;;;;;;;10318553;28;20040;-64
2021/03/01 00:38:07;;;;;;;10.73;7.78;;;;;;;;;;10324707;28;20083;-65
2021/03/01 00:43:04;;;;;;;10.73;7.68;;;;;;;;;;10323761;28;20523;-64
2021/03/01 00:48:01;;;;;;;10.05;8.35;;;;;;;;;;10323968;28;20047;-64
2021/03/01 00:53:00;;;;;;;13.05;8.70;;;;;;;;;;10323668;28;20486;-63
2021/03/01 00:57:58;;;;;;;12.00;7.88;;;;;;;;;;10322020;28;20040;-63
2021/03/01 01:02:55;;;;;;;12.07;8.80;;;;;;;;;;10322912;28;20103;-65
2021/03/01 01:08:17;;;;;;;11.48;8.85;;;;;;;;;;10320757;28;20082;-63
2021/03/01 01:13:14;;;;;;;15.38;9.20;;;;;;;;;;10323433;28;20052;-63
2021/03/01 01:18:11;;;;;;;13.25;9.60;;;;;;;;;;10322576;28;20044;-64
2021/03/01 01:23:09;;;;;;;12.20;9.32;;;;;;;;;;10322709;28;20519;-63
2021/03/01 01:28:07;;;;;;;14.15;10.88;;;;;;;;;;10322752;28;20072;-65
2021/03/01 01:33:05;;;;;;;15.18;10.07;;;;;;;;;;10322011;28;20504;-64
2021/03/01 01:38:02;;;;;;;14.85;10.75;;;;;;;;;;10321837;28;20051;-65
2021/03/01 01:43:00;;;;;;;12.35;10.23;;;;;;;;;;10321002;28;20076;-64
2021/03/01 01:47:58;;;;;;;18.65;14.35;;;;;;;;;;10321732;28;20076;-64
2021/03/01 01:52:56;;;;;;;13.68;10.75;;;;;;;;;;10321172;28;20071;-65
2021/03/01 01:57:54;;;;;;;21.05;11.70;;;;;;;;;;10321608;28;20049;-64
2021/03/01 02:02:55;;;;;;;17.20;11.30;;;;;;;;;;10320863;28;20099;-64
2021/03/01 02:07:55;;;;;;;16.73;12.18;;;;;;;;;;10320614;28;20083;-64
2021/03/01 02:12:56;;;;;;;17.02;11.63;;;;;;;;;;10320748;28;20037;-64
2021/03/01 02:17:54;;;;;;;14.30;11.10;;;;;;;;;;10320900;28;20088;-64
2021/03/01 02:22:52;;;;;;;14.63;11.93;;;;;;;;;;10319581;28;20092;-65
2021/03/01 02:27:50;;;;;;;15.80;11.82;;;;;;;;;;10320187;28;20083;-64
2021/03/01 02:32:49;;;;;;;17.83;12.45;;;;;;;;;;10319422;28;20044;-64
2021/03/01 02:37:47;;;;;;;15.52;11.52;;;;;;;;;;10319307;28;20044;-64
2021/03/01 02:42:47;;;;;;;16.80;11.90;;;;;;;;;;10319276;28;20076;-64
2021/03/01 02:47:45;;;;;;;19.75;13.02;;;;;;;;;;10318247;28;20044;-64
2021/03/01 02:52:43;;;;;;;15.77;12.68;;;;;;;;;;10319024;28;20074;-64
2021/03/01 02:57:41;;;;;;;14.25;12.75;;;;;;;;;;10318080;28;20048;-65
2021/03/01 03:02:40;;;;;;;15.18;13.15;;;;;;;;;;10318250;28;20072;-64
2021/03/01 03:07:38;;;;;;;18.02;13.63;;;;;;;;;;10318055;28;20071;-65
2021/03/01 03:12:38;;;;;;;17.02;11.88;;;;;;;;;;10318005;28;20044;-65
2021/03/01 03:17:37;;;;;;;16.83;13.32;;;;;;;;;;10318451;28;20048;-65
2021/03/01 03:22:36;;;;;;;17.83;12.50;;;;;;;;;;10318046;28;20091;-65
2021/03/01 03:27:33;;;;;;;21.73;14.50;;;;;;;;;;10317439;28;20059;-65
2021/03/01 03:32:30;;;;;;;17.02;13.50;;;;;;;;;;10317324;28;20076;-65
2021/03/01 03:37:31;;;;;;;22.60;14.35;;;;;;;;;;10317235;28;20482;-64
2021/03/01 03:42:29;;;;;;;23.55;16.13;;;;;;;;;;10317446;28;20076;-65
2021/03/01 03:47:28;;;;;;;33.90;19.70;;;;;;;;;;10317518;28;20040;-65
2021/03/01 03:52:28;;;;;;;23.90;15.52;;;;;;;;;;10316839;28;20083;-65
2021/03/01 03:57:28;;;;;;;18.30;13.40;;;;;;;;;;10317032;28;20044;-64
2021/03/01 04:02:26;;;;;;;19.27;13.45;;;;;;;;;;10316337;28;20465;-64
2021/03/01 04:07:24;;;;;;;20.08;12.68;;;;;;;;;;10316108;28;20087;-64
2021/03/01 04:12:22;;;;;;;19.75;13.27;;;;;;;;;;10316821;28;20051;-64
2021/03/01 04:17:20;;;;;;;17.00;14.18;;;;;;;;;;10316072;28;20413;-64
2021/03/01 04:22:19;;;;;;;17.42;13.40;;;;;;;;;;10315995;28;20076;-64
2021/03/01 04:27:17;;;;;;;20.00;12.50;;;;;;;;;;10315927;28;20048;-64
2021/03/01 04:32:14;;;;;;;20.67;13.00;;;;;;;;;;10314495;28;20044;-64
2021/03/01 04:37:12;;;;;;;17.42;12.02;;;;;;;;;;10315813;28;20047;-64
2021/03/01 04:42:13;;;;;;;16.33;11.88;;;;;;;;;;10315348;28;20087;-64
2021/03/01 04:47:28;;;;;;;19.50;13.18;;;;;;;;;;10315683;28;20080;-64
2021/03/01 04:52:27;;;;;;;30.27;21.00;;;;;;;;;;10315269;28;20044;-64
2021/03/01 04:57:26;;;;;;;36.63;24.58;;;;;;;;;;10315125;28;20079;-64
2021/03/01 05:02:23;;;;;;;18.50;14.82;;;;;;;;;;10314795;28;20479;-64
2021/03/01 05:07:23;;;;;;;18.65;13.73;;;;;;;;;;10315640;28;20505;-64
2021/03/01 05:12:21;;;;;;;18.23;13.95;;;;;;;;;;10315475;28;20051;-63
2021/03/01 05:17:19;;;;;;;18.50;13.93;;;;;;;;;;10315322;28;20041;-63
2021/03/01 05:22:16;;;;;;;23.60;14.73;;;;;;;;;;10321403;28;20056;-63
2021/03/01 05:27:14;;;;;;;32.58;18.10;;;;;;;;;;10321976;28;20055;-63
2021/03/01 05:32:11;;;;;;;34.50;19.70;;;;;;;;;;10322386;28;20628;-65
2021/03/01 05:37:09;;;;;;;28.30;18.67;;;;;;;;;;10321747;28;20044;-63
2021/03/01 05:42:07;;;;;;;18.48;14.48;;;;;;;;;;10321538;28;20091;-62
2021/03/01 05:47:04;;;;;;;26.27;17.90;;;;;;;;;;10321150;28;20091;-64
2021/03/01 05:52:02;;;;;;;29.23;18.90;;;;;;;;;;10321073;28;20045;-64
2021/03/01 05:57:00;;;;;;;34.80;23.73;;;;;;;;;;10321153;28;20041;-65
2021/03/01 06:01:58;;;;;;;26.60;18.65;;;;;;;;;;10320918;28;20048;-66
2021/03/01 06:06:55;;;;;;;45.92;29.88;;;;;;;;;;10320931;28;20072;-65
2021/03/01 06:11:54;;;;;;;52.47;32.72;;;;;;;;;;10320743;28;20079;-64
2021/03/01 06:17:15;;;;;;;63.38;37.50;;;;;;;;;;10320123;28;20049;-64
2021/03/01 06:22:13;;;;;;;18.73;15.40;;;;;;;;;;10320247;28;20088;-64
2021/03/01 06:27:11;;;;;;;26.83;15.73;;;;;;;;;;10319526;28;20068;-65
2021/03/01 06:32:10;;;;;;;26.30;18.02;;;;;;;;;;10320098;28;20072;-65
2021/03/01 06:37:09;;;;;;;18.25;13.93;;;;;;;;;;10318532;28;20048;-65
2021/03/01 06:42:23;;;;;;;25.00;17.15;;;;;;;;;;10319187;28;20044;-65
2021/03/01 06:47:21;;;;;;;23.95;16.42;;;;;;;;;;10318793;28;20085;-65
2021/03/01 06:52:33;;;;;;;22.67;15.95;;;;;;;;;;10318846;28;20080;-65
2021/03/01 06:57:31;;;;;;;27.63;21.13;;;;;;;;;;10318417;28;20056;-65
2021/03/01 07:02:35;;;;;;;43.33;29.52;;;;;;;;;;10318538;28;20049;-65
2021/03/01 07:07:33;;;;;;;74.17;48.70;;;;;;;;;;10318401;28;20067;-65
2021/03/01 07:12:41;;;;;;;43.20;27.98;;;;;;;;;;10318082;28;20044;-64
2021/03/01 07:17:40;;;;;;;43.42;29.75;;;;;;;;;;10317813;28;20139;-65
2021/03/01 07:22:39;;;;;;;33.13;23.45;;;;;;;;;;10317688;28;20084;-65
2021/03/01 07:27:38;;;;;;;333.55;225.73;;;;;;;;;;10317432;28;20512;-65
2021/03/01 07:32:37;;;;;;;25.17;19.40;;;;;;;;;;10317444;28;20068;-64
2021/03/01 07:37:36;;;;;;;27.60;18.65;;;;;;;;;;10317628;28;20052;-64
2021/03/01 07:42:35;;;;;;;24.80;18.25;;;;;;;;;;10316695;28;20040;-65
2021/03/01 07:47:34;;;;;;;26.92;19.05;;;;;;;;;;10316560;28;20083;-65
2021/03/01 07:52:36;;;;;;;38.42;31.02;;;;;;;;;;10316719;28;20041;-65
2021/03/01 07:57:34;;;;;;;29.95;23.98;;;;;;;;;;10317302;28;20433;-65
2021/03/01 08:02:33;;;;;;;37.03;27.85;;;;;;;;;;10315208;28;20040;-64
2021/03/01 08:07:39;;;;;;;38.65;32.03;;;;;;;;;;10316808;28;20516;-65
2021/03/01 08:12:55;;;;;;;47.63;39.50;;;;;;;;;;10316129;28;20045;-66
2021/03/01 08:17:52;;;;;;;;;;;;;;;;;;10316698;28;20068;-65
2021/03/01 08:23:09;;;;;;;38.35;32.22;;;;;;;;;;10315930;28;20301;-66
2021/03/01 08:28:08;;;;;;;48.95;40.70;;;;;;;;;;10316424;28;20048;-65
2021/03/01 08:33:22;;;;;;;76.80;55.15;;;;;;;;;;10314686;28;20044;-65
2021/03/01 08:38:40;;;;;;;60.63;43.03;;;;;;;;;;10316071;28;20044;-67
2021/03/01 08:43:39;;;;;;;46.38;32.97;;;;;;;;;;10315881;28;20083;-65
2021/03/01 08:48:39;;;;;;;50.42;34.53;;;;;;;;;;10315864;28;20075;-65
2021/03/01 08:53:38;;;;;;;33.13;25.98;;;;;;;;;;10317171;28;20068;-65
2021/03/01 08:58:41;;;;;;;25.88;20.33;;;;;;;;;;10323242;28;20041;-65
2021/03/01 09:03:39;;;;;;;28.77;21.27;;;;;;;;;;10323423;28;20083;-65
2021/03/01 09:08:37;;;;;;;30.35;23.65;;;;;;;;;;10323669;28;20068;-63
2021/03/01 09:13:36;;;;;;;46.80;30.67;;;;;;;;;;10322707;28;20055;-63
2021/03/01 09:18:35;;;;;;;51.67;33.55;;;;;;;;;;10322857;28;20040;-63
2021/03/01 09:23:34;;;;;;;80.07;53.95;;;;;;;;;;10322284;28;20076;-64
2021/03/01 09:28:32;;;;;;;67.25;39.78;;;;;;;;;;10322749;28;20079;-63
2021/03/01 09:33:29;;;;;;;167.27;95.30;;;;;;;;;;10322471;28;20056;-63
2021/03/01 09:38:28;;;;;;;145.05;84.20;;;;;;;;;;10321851;28;20078;-63
2021/03/01 09:43:25;;;;;;;126.32;84.90;;;;;;;;;;10321763;28;20080;-62
2021/03/01 09:48:23;;;;;;;73.55;49.72;;;;;;;;;;10321718;28;20069;-62
2021/03/01 09:53:21;;;;;;;44.78;32.95;;;;;;;;;;10321190;28;20044;-63
2021/03/01 09:58:22;;;;;;;57.78;40.53;;;;;;;;;;10320369;28;20467;-63
2021/03/01 10:03:19;;;;;;;38.58;25.83;;;;;;;;;;10321157;28;20080;-63
2021/03/01 10:08:24;;;;;;;46.85;34.67;;;;;;;;;;10320493;28;20048;-65
2021/03/01 10:13:26;;;;;;;59.33;43.00;;;;;;;;;;10320538;28;20045;-64
2021/03/01 10:18:27;;;;;;;60.67;44.22;;;;;;;;;;10320479;28;20048;-64
2021/03/01 10:23:35;;;;;;;54.65;40.33;;;;;;;;;;10320398;28;20097;-64
2021/03/01 10:28:34;;;;;;;43.65;31.92;;;;;;;;;;10320238;28;20040;-63
2021/03/01 10:33:31;;;;;;;50.72;39.05;;;;;;;;;;10320254;28;20056;-63
2021/03/01 10:38:28;;;;;;;45.22;32.58;;;;;;;;;;10319716;28;20474;-62
2021/03/01 10:43:26;;;;;;;56.92;40.60;;;;;;;;;;10319345;28;20055;-63
2021/03/01 10:48:24;;;;;;;60.63;39.13;;;;;;;;;;10319293;28;20053;-63
2021/03/01 10:53:21;;;;;;;75.43;49.13;;;;;;;;;;10319045;28;20044;-63
2021/03/01 10:58:18;;;;;;;28.38;20.45;;;;;;;;;;10318885;28;20036;-63
2021/03/01 11:03:16;;;;;;;44.55;30.77;;;;;;;;;;10318811;28;20053;-63
2021/03/01 11:08:14;;;;;;;32.60;22.83;;;;;;;;;;10317853;28;20075;-63
2021/03/01 11:13:11;;;;;;;45.50;30.05;;;;;;;;;;10317804;28;20064;-63
2021/03/01 11:18:09;;;;;;;31.00;25.63;;;;;;;;;;10317586;28;20504;-63
2021/03/01 11:23:06;;;;;;;83.70;63.53;;;;;;;;;;10317801;28;20095;-63
2021/03/01 11:28:09;;;;;;;82.68;70.97;;;;;;;;;;10317591;28;20502;-63
2021/03/01 11:33:07;;;;;;;94.15;73.05;;;;;;;;;;10317888;28;20517;-63
2021/03/01 11:38:05;;;;;;;45.70;40.70;;;;;;;;;;10317770;28;20056;-62
2021/03/01 11:43:02;;;;;;;88.50;58.95;;;;;;;;;;10317096;28;20075;-63
2021/03/01 11:48:01;;;;;;;23.95;20.70;;;;;;;;;;10317461;28;20080;-63
2021/03/01 11:52:59;;;;;;;112.55;82.03;;;;;;;;;;10317371;28;20056;-63
2021/03/01 11:57:56;;;;;;;67.05;48.78;;;;;;;;;;10316716;28;20056;-63
2021/03/01 12:02:53;;;;;;;72.72;51.70;;;;;;;;;;10316507;28;20083;-63
2021/03/01 12:07:52;;;;;;;123.82;77.50;;;;;;;;;;10317383;28;20082;-63
2021/03/01 12:12:49;;;;;;;102.32;71.35;;;;;;;;;;10316355;28;20486;-63
2021/03/01 12:17:46;;;;;;;71.20;51.38;;;;;;;;;;10316250;28;20068;-63
2021/03/01 12:22:44;;;;;;;109.82;66.30;;;;;;;;;;10316153;28;20055;-63
2021/03/01 12:27:42;;;;;;;114.35;75.40;;;;;;;;;;10315488;28;20057;-63
2021/03/01 12:32:39;;;;;;;157.23;102.45;;;;;;;;;;10324446;28;20481;-63
2021/03/01 12:37:37;;;;;;;450.17;204.90;;;;;;;;;;10324218;28;20083;-63
2021/03/01 12:42:34;;;;;;;155.07;90.28;;;;;;;;;;10323804;28;20045;-63
2021/03/01 12:47:32;;;;;;;127.63;71.60;;;;;;;;;;10323747;28;20080;-63
2021/03/01 12:52:30;;;;;;;124.18;83.57;;;;;;;;;;10323540;28;20040;-63
2021/03/01 12:57:27;;;;;;;139.07;85.47;;;;;;;;;;10324014;28;20048;-63
2021/03/01 13:02:25;;;;;;;46.08;30.40;;;;;;;;;;10323293;28;20041;-63
2021/03/01 13:07:24;;;;;;;48.70;32.80;;;;;;;;;;10322937;28;20454;-63
2021/03/01 13:12:21;;;;;;;71.43;46.35;;;;;;;;;;10322680;28;20036;-63
2021/03/01 13:17:19;;;;;;;25.48;18.42;;;;;;;;;;10323018;28;20049;-63
2021/03/01 13:22:16;;;;;;;46.30;32.75;;;;;;;;;;10322967;28;20065;-63
2021/03/01 13:27:16;;;;;;;74.63;49.53;;;;;;;;;;10322729;28;20076;-63
2021/03/01 13:32:13;;;;;;;74.80;47.88;;;;;;;;;;10321883;28;20090;-64
2021/03/01 13:37:10;;;;;;;16.65;12.95;;;;;;;;;;10322243;28;20048;-65
2021/03/01 13:42:08;;;;;;;60.28;40.85;;;;;;;;;;10320938;28;20052;-65
2021/03/01 13:47:06;;;;;;;45.10;31.70;;;;;;;;;;10321324;28;20088;-65
2021/03/01 13:52:04;;;;;;;69.07;45.30;;;;;;;;;;10322582;28;20044;-66
2021/03/01 13:57:01;;;;;;;57.67;39.35;;;;;;;;;;10321625;28;20040;-65
2021/03/01 14:01:58;;;;;;;30.65;24.52;;;;;;;;;;10320829;28;20044;-66
2021/03/01 14:06:57;;;;;;;48.65;31.88;;;;;;;;;;10321011;28;20080;-66
2021/03/01 14:11:54;;;;;;;38.88;24.30;;;;;;;;;;10321478;28;20512;-65
2021/03/01 14:16:51;;;;;;;90.95;54.22;;;;;;;;;;10320919;28;20576;-64
2021/03/01 14:21:49;;;;;;;36.83;25.08;;;;;;;;;;10319736;28;20084;-64
2021/03/01 14:26:47;;;;;;;58.92;38.47;;;;;;;;;;10320356;28;20095;-64
2021/03/01 14:31:44;;;;;;;14.60;10.88;;;;;;;;;;10320960;28;20045;-64
2021/03/01 14:36:42;;;;;;;50.63;33.47;;;;;;;;;;10320700;28;20041;-65
2021/03/01 14:41:39;;;;;;;18.77;15.55;;;;;;;;;;10317899;28;20048;-64
2021/03/01 14:46:37;;;;;;;29.00;22.02;;;;;;;;;;10320126;28;20068;-64
2021/03/01 14:51:37;;;;;;;41.92;29.73;;;;;;;;;;10318843;28;20041;-64
2021/03/01 14:56:34;;;;;;;22.52;19.33;;;;;;;;;;10318344;28;20040;-64
2021/03/01 15:01:32;;;;;;;23.52;18.73;;;;;;;;;;10319625;28;20045;-65
2021/03/01 15:06:30;;;;;;;43.10;27.95;;;;;;;;;;10319556;28;20072;-64
2021/03/01 15:11:27;;;;;;;28.42;21.70;;;;;;;;;;10318197;28;20080;-64
2021/03/01 15:16:24;;;;;;;38.60;29.23;;;;;;;;;;10319029;28;20391;-65
2021/03/01 15:21:22;;;;;;;29.15;24.33;;;;;;;;;;10318333;28;20055;-65
2021/03/01 15:26:20;;;;;;;52.10;36.63;;;;;;;;;;10318507;28;20068;-65
2021/03/01 15:31:17;;;;;;;24.50;19.98;;;;;;;;;;10310567;28;20041;-65
2021/03/01 15:36:14;;;;;;;30.80;24.63;;;;;;;;;;10299142;28;20076;-65
2021/03/01 15:41:12;;;;;;;50.85;37.90;;;;;;;;;;10275132;28;20068;-64
2021/03/01 15:46:10;;;;;;;45.22;35.38;;;;;;;;;;10278666;28;20501;-65
2021/03/01 15:51:07;;;;;;;48.10;34.85;;;;;;;;;;10309401;28;20083;-65
2021/03/01 15:56:05;;;;;;;49.95;34.03;;;;;;;;;;10292188;28;20040;-65
2021/03/01 16:01:02;;;;;;;50.20;36.83;;;;;;;;;;10277812;28;20087;-64
2021/03/01 16:06:03;;;;;;;67.00;51.35;;;;;;;;;;10291375;28;20064;-64
2021/03/01 16:11:00;;;;;;;62.90;47.15;;;;;;;;;;10293224;28;20067;-63
2021/03/01 16:15:57;;;;;;;94.95;68.40;;;;;;;;;;10316872;28;20072;-64
2021/03/01 16:20:55;;;;;;;96.63;69.72;;;;;;;;;;10316341;28;20052;-64
2021/03/01 16:25:54;;;;;;;112.65;83.05;;;;;;;;;;10309855;28;20498;-63
2021/03/01 16:30:52;;;;;;;118.78;85.25;;;;;;;;;;10292832;28;20060;-64
2021/03/01 16:35:49;;;;;;;152.48;101.68;;;;;;;;;;10286497;28;20091;-63
2021/03/01 16:40:47;;;;;;;214.57;174.88;;;;;;;;;;10292466;28;20072;-64
2021/03/01 16:45:48;;;;;;;70.00;55.28;;;;;;;;;;10292623;28;20289;-65
2021/03/01 16:50:49;;;;;;;121.03;76.90;;;;;;;;;;10293502;28;20068;-65
2021/03/01 16:55:47;;;;;;;44.70;34.05;;;;;;;;;;10292520;28;20072;-65
2021/03/01 17:00:47;;;;;;;59.92;47.30;;;;;;;;;;10293970;28;20094;-65
2021/03/01 17:05:46;;;;;;;96.55;64.45;;;;;;;;;;10290855;28;20084;-63
2021/03/01 17:10:46;;;;;;;90.80;62.53;;;;;;;;;;10321513;28;20440;-65
2021/03/01 17:15:44;;;;;;;113.32;73.43;;;;;;;;;;10336731;28;20409;-64
2021/03/01 17:20:43;;;;;;;93.40;66.60;;;;;;;;;;10343814;28;20084;-66
2021/03/01 17:25:43;;;;;;;70.95;46.80;;;;;;;;;;10327249;28;20072;-65
2021/03/01 17:30:42;;;;;;;70.18;46.60;;;;;;;;;;10298294;28;20076;-66
2021/03/01 17:35:40;;;;;;;36.67;29.40;;;;;;;;;;10297328;28;20202;-65
2021/03/01 17:40:39;;;;;;;29.50;24.20;;;;;;;;;;10283900;28;20072;-65
2021/03/01 17:45:37;;;;;;;48.85;41.20;;;;;;;;;;10310807;28;20080;-66
2021/03/01 17:50:36;;;;;;;51.33;34.13;;;;;;;;;;10315615;28;20079;-65
2021/03/01 17:55:38;;;;;;;75.93;54.65;;;;;;;;;;10342013;28;20425;-65
2021/03/01 18:00:36;;;;;;;88.55;59.97;;;;;;;;;;10337463;28;20063;-65
2021/03/01 18:05:38;;;;;;;78.63;56.13;;;;;;;;;;10334912;28;20076;-65
2021/03/01 18:10:36;;;;;;;86.78;60.35;;;;;;;;;;10339738;28;21483;-66
2021/03/01 18:15:34;;;;;;;82.15;60.35;;;;;;;;;;10337489;28;20070;-65
2021/03/01 18:20:33;;;;;;;116.38;76.15;;;;;;;;;;10341388;28;20056;-65
2021/03/01 18:25:44;;;;;;;110.38;72.13;;;;;;;;;;10339165;28;20076;-65
2021/03/01 18:30:42;;;;;;;30.30;21.38;;;;;;;;;;10338559;28;20504;-65
2021/03/01 18:35:51;;;;;;;59.95;41.22;;;;;;;;;;10337462;28;20075;-66
2021/03/01 18:40:57;;;;;;;70.72;47.47;;;;;;;;;;10336713;28;20078;-64
2021/03/01 18:45:59;;;;;;;48.78;35.90;;;;;;;;;;10339304;28;20486;-65
2021/03/01 18:50:57;;;;;;;80.65;51.50;;;;;;;;;;10327017;28;20068;-63
2021/03/01 18:55:54;;;;;;;146.95;80.57;;;;;;;;;;10324119;28;20066;-67
2021/03/01 19:00:52;;;;;;;110.93;71.78;;;;;;;;;;10328243;28;20079;-64
2021/03/01 19:05:50;;;;;;;87.22;60.80;;;;;;;;;;10330671;28;20075;-65
2021/03/01 19:10:48;;;;;;;80.40;51.70;;;;;;;;;;10333576;28;20043;-65
2021/03/01 19:15:45;;;;;;;72.88;45.55;;;;;;;;;;10336722;28;20041;-65
2021/03/01 19:20:44;;;;;;;80.18;57.25;;;;;;;;;;10339134;28;20051;-65
2021/03/01 19:25:42;;;;;;;91.10;62.10;;;;;;;;;;10326629;28;20080;-63
2021/03/01 19:30:41;;;;;;;96.95;69.70;;;;;;;;;;10333310;28;20476;-65
2021/03/01 19:35:40;;;;;;;96.50;60.08;;;;;;;;;;10336864;28;20036;-65
2021/03/01 19:40:38;;;;;;;88.07;62.25;;;;;;;;;;10324786;28;20072;-63
2021/03/01 19:45:36;;;;;;;83.10;58.50;;;;;;;;;;10312520;28;20143;-65
2021/03/01 19:50:37;;;;;;;100.95;68.50;;;;;;;;;;10290642;28;20086;-64
2021/03/01 19:55:35;;;;;;;70.50;44.30;;;;;;;;;;10323368;28;20517;-64
2021/03/01 20:00:32;;;;;;;90.18;49.08;;;;;;;;;;10321146;28;20097;-64
2021/03/01 20:05:29;;;;;;;46.83;33.13;;;;;;;;;;10313871;28;20083;-64
2021/03/01 20:10:28;;;;;;;97.22;67.50;;;;;;;;;;10305794;28;20087;-64
2021/03/01 20:15:25;;;;;;;87.75;59.45;;;;;;;;;;10294874;28;20211;-65
2021/03/01 20:20:24;;;;;;;85.22;60.20;;;;;;;;;;10307205;28;20060;-64
2021/03/01 20:25:21;;;;;;;78.38;53.70;;;;;;;;;;10336960;28;20076;-64
2021/03/01 20:30:20;;;;;;;53.47;35.70;;;;;;;;;;10336488;28;20047;-65
2021/03/01 20:35:17;;;;;;;65.70;44.92;;;;;;;;;;10336155;28;20083;-65
2021/03/01 20:40:15;;;;;;;78.82;48.58;;;;;;;;;;10337168;28;20105;-65
2021/03/01 20:45:13;;;;;;;205.65;133.93;;;;;;;;;;10334740;28;20067;-64
2021/03/01 20:50:12;;;;;;;65.25;42.75;;;;;;;;;;10335256;28;20036;-65
2021/03/01 20:55:09;;;;;;;56.70;40.38;;;;;;;;;;10344477;28;20414;-65
2021/03/01 21:00:07;;;;;;;37.92;26.25;;;;;;;;;;10342251;28;20379;-64
2021/03/01 21:05:05;;;;;;;31.05;20.10;;;;;;;;;;10343658;28;20067;-66
2021/03/01 21:10:04;;;;;;;13.52;11.15;;;;;;;;;;10343796;28;20083;-64
2021/03/01 21:15:01;;;;;;;15.73;11.60;;;;;;;;;;10342108;28;20098;-64
2021/03/01 21:19:59;;;;;;;21.35;14.73;;;;;;;;;;10341674;28;20045;-64
2021/03/01 21:24:56;;;;;;;37.47;18.50;;;;;;;;;;10339504;28;20036;-65
2021/03/01 21:29:55;;;;;;;30.13;16.35;;;;;;;;;;10342095;28;20076;-65
2021/03/01 21:34:52;;;;;;;24.70;14.27;;;;;;;;;;10338072;28;20040;-65
2021/03/01 21:39:50;;;;;;;20.33;12.93;;;;;;;;;;10338533;28;20091;-66
2021/03/01 21:44:47;;;;;;;18.70;13.60;;;;;;;;;;10338432;28;20659;-66
2021/03/01 21:49:47;;;;;;;20.45;14.52;;;;;;;;;;10340879;28;20064;-66
2021/03/01 21:54:44;;;;;;;14.93;11.30;;;;;;;;;;10342443;28;20446;-65
2021/03/01 21:59:42;;;;;;;14.45;10.90;;;;;;;;;;10339451;28;20040;-66
2021/03/01 22:04:42;;;;;;;20.58;14.30;;;;;;;;;;10337329;28;20047;-65
2021/03/01 22:09:43;;;;;;;19.25;15.20;;;;;;;;;;10341963;28;20071;-65
2021/03/01 22:14:40;;;;;;;17.98;12.15;;;;;;;;;;10336383;28;20043;-64
2021/03/01 22:19:38;;;;;;;22.13;15.35;;;;;;;;;;10339979;28;20075;-64
2021/03/01 22:24:38;;;;;;;19.20;13.00;;;;;;;;;;10339803;28;20106;-64
2021/03/01 22:29:42;;;;;;;52.00;32.03;;;;;;;;;;10340542;28;20082;-64
2021/03/01 22:34:42;;;;;;;22.48;14.93;;;;;;;;;;10339302;28;20032;-64
2021/03/01 22:39:42;;;;;;;14.88;10.98;;;;;;;;;;10340391;28;20450;-65
2021/03/01 22:44:46;;;;;;;14.43;11.10;;;;;;;;;;10337885;28;20478;-65
2021/03/01 22:49:45;;;;;;;13.80;11.68;;;;;;;;;;10339632;28;20071;-66
2021/03/01 22:54:43;;;;;;;13.32;11.70;;;;;;;;;;10338437;28;20390;-65
2021/03/01 22:59:41;;;;;;;12.88;9.73;;;;;;;;;;10339134;28;20064;-65
2021/03/01 23:04:39;;;;;;;17.38;11.93;;;;;;;;;;10337995;28;20044;-64
2021/03/01 23:09:37;;;;;;;20.73;11.65;;;;;;;;;;10338026;28;20067;-66
2021/03/01 23:14:34;;;;;;;43.90;21.67;;;;;;;;;;10338180;28;20504;-64
2021/03/01 23:19:33;;;;;;;22.70;11.82;;;;;;;;;;10336864;28;20044;-64
2021/03/01 23:24:30;;;;;;;27.77;16.70;;;;;;;;;;10334817;28;20253;-64
2021/03/01 23:29:27;;;;;;;19.15;14.25;;;;;;;;;;10338448;28;20072;-65
2021/03/01 23:34:25;;;;;;;32.15;16.13;;;;;;;;;;10337163;28;20297;-66
2021/03/01 23:39:23;;;;;;;16.88;11.20;;;;;;;;;;10337483;28;20447;-66
2021/03/01 23:44:39;;;;;;;22.10;16.17;;;;;;;;;;10335008;28;20067;-65
2021/03/01 23:49:41;;;;;;;19.27;14.80;;;;;;;;;;10338051;28;20088;-66
2021/03/01 23:54:40;;;;;;;14.82;11.45;;;;;;;;;;10334288;28;20048;-65
2021/03/01 23:59:37;;;;;;;21.17;13.98;;;;;;;;;;10338053;28;20045;-65
